sensor_id;sensor_type;location;lat;lon;timestamp;temperature;humidity
4175;DHT22;2101;48.290;14.382;2024-03-06T00:00:04;5.40;99.90
4175;DHT22;2101;48.290;14.382;2024-03-06T00:02:30;5.40;99.90
4175;DHT22;2101;48.290;14.382;2024-03-06T00:04:56;5.50;99.90
4175;DHT22;2101;48.290;14.382;2024-03-06T00:07:22;5.50;99.90
4175;DHT22;2101;48.290;14.382;2024-03-06T00:09:48;5.50;99.90
4175;DHT22;2101;48.290;14.382;2024-03-06T00:12:13;5.50;99.90
4175;DHT22;2101;48.290;14.382;2024-03-06T00:14:39;5.50;99.90
4175;DHT22;2101;48.290;14.382;2024-03-06T00:17:05;5.50;99.90
4175;DHT22;2101;48.290;14.382;2024-03-06T00:19:32;5.40;99.90
4175;DHT22;2101;48.290;14.382;2024-03-06T00:21:59;5.40;99.90
4175;DHT22;2101;48.290;14.382;2024-03-06T00:24:26;5.40;99.90
4175;DHT22;2101;48.290;14.382;2024-03-06T00:26:52;5.40;99.90
4175;DHT22;2101;48.290;14.382;2024-03-06T00:29:19;5.40;99.90
4175;DHT22;2101;48.290;14.382;2024-03-06T00:31:45;5.40;99.90
4175;DHT22;2101;48.290;14.382;2024-03-06T00:34:11;5.30;99.90
4175;DHT22;2101;48.290;14.382;2024-03-06T00:36:45;5.30;99.90
4175;DHT22;2101;48.290;14.382;2024-03-06T00:39:11;5.20;99.90
4175;DHT22;2101;48.290;14.382;2024-03-06T00:41:40;5.30;99.90
4175;DHT22;2101;48.290;14.382;2024-03-06T00:44:06;5.30;99.90
4175;DHT22;2101;48.290;14.382;2024-03-06T00:46:32;5.30;99.90
4175;DHT22;2101;48.290;14.382;2024-03-06T00:48:58;5.40;99.90
4175;DHT22;2101;48.290;14.382;2024-03-06T00:51:24;5.30;99.90
4175;DHT22;2101;48.290;14.382;2024-03-06T00:53:50;5.30;99.90
4175;DHT22;2101;48.290;14.382;2024-03-06T00:56:15;5.30;99.90
4175;DHT22;2101;48.290;14.382;2024-03-06T00:58:41;5.20;99.90
4175;DHT22;2101;48.290;14.382;2024-03-06T01:01:07;5.20;99.90
4175;DHT22;2101;48.290;14.382;2024-03-06T01:03:33;5.10;99.90
4175;DHT22;2101;48.290;14.382;2024-03-06T01:05:59;5.10;99.90
4175;DHT22;2101;48.290;14.382;2024-03-06T01:08:25;5.00;99.90
4175;DHT22;2101;48.290;14.382;2024-03-06T01:10:51;5.10;99.90
4175;DHT22;2101;48.290;14.382;2024-03-06T01:13:18;5.10;99.90
4175;DHT22;2101;48.290;14.382;2024-03-06T01:15:44;5.00;99.90
4175;DHT22;2101;48.290;14.382;2024-03-06T01:18:10;5.10;99.90
4175;DHT22;2101;48.290;14.382;2024-03-06T01:20:36;5.10;99.90
4175;DHT22;2101;48.290;14.382;2024-03-06T01:23:03;5.10;99.90
4175;DHT22;2101;48.290;14.382;2024-03-06T01:25:29;5.10;99.90
4175;DHT22;2101;48.290;14.382;2024-03-06T01:27:54;5.10;99.90
4175;DHT22;2101;48.290;14.382;2024-03-06T01:30:20;5.10;99.90
4175;DHT22;2101;48.290;14.382;2024-03-06T01:32:46;5.10;99.90
4175;DHT22;2101;48.290;14.382;2024-03-06T01:35:12;5.00;99.90
4175;DHT22;2101;48.290;14.382;2024-03-06T01:37:38;5.00;99.90
4175;DHT22;2101;48.290;14.382;2024-03-06T01:40:04;4.90;99.90
4175;DHT22;2101;48.290;14.382;2024-03-06T01:42:31;4.90;99.90
4175;DHT22;2101;48.290;14.382;2024-03-06T01:44:57;4.80;99.90
4175;DHT22;2101;48.290;14.382;2024-03-06T01:47:23;4.70;99.90
4175;DHT22;2101;48.290;14.382;2024-03-06T01:49:49;4.60;99.90
4175;DHT22;2101;48.290;14.382;2024-03-06T01:52:16;4.50;99.90
4175;DHT22;2101;48.290;14.382;2024-03-06T01:54:44;4.50;99.90
4175;DHT22;2101;48.290;14.382;2024-03-06T01:57:11;4.50;99.90
4175;DHT22;2101;48.290;14.382;2024-03-06T01:59:39;4.50;99.90
4175;DHT22;2101;48.290;14.382;2024-03-06T02:02:05;4.40;99.90
4175;DHT22;2101;48.290;14.382;2024-03-06T02:04:34;4.40;99.90
4175;DHT22;2101;48.290;14.382;2024-03-06T02:06:59;4.40;99.90
4175;DHT22;2101;48.290;14.382;2024-03-06T02:09:25;4.30;99.90
4175;DHT22;2101;48.290;14.382;2024-03-06T02:11:52;4.30;99.90
4175;DHT22;2101;48.290;14.382;2024-03-06T02:14:17;4.30;99.90
4175;DHT22;2101;48.290;14.382;2024-03-06T02:16:43;4.30;99.90
4175;DHT22;2101;48.290;14.382;2024-03-06T02:19:09;4.20;99.90
4175;DHT22;2101;48.290;14.382;2024-03-06T02:21:35;4.20;99.90
4175;DHT22;2101;48.290;14.382;2024-03-06T02:24:01;4.10;99.90
4175;DHT22;2101;48.290;14.382;2024-03-06T02:26:27;4.00;99.90
4175;DHT22;2101;48.290;14.382;2024-03-06T02:28:54;4.10;99.90
4175;DHT22;2101;48.290;14.382;2024-03-06T02:31:21;4.00;99.90
4175;DHT22;2101;48.290;14.382;2024-03-06T02:33:48;4.10;99.90
4175;DHT22;2101;48.290;14.382;2024-03-06T02:36:18;4.00;99.90
4175;DHT22;2101;48.290;14.382;2024-03-06T02:38:45;4.00;99.90
4175;DHT22;2101;48.290;14.382;2024-03-06T02:41:14;4.00;99.90
4175;DHT22;2101;48.290;14.382;2024-03-06T02:43:41;3.90;99.90
4175;DHT22;2101;48.290;14.382;2024-03-06T02:46:08;3.90;99.90
4175;DHT22;2101;48.290;14.382;2024-03-06T02:48:34;3.80;99.90
4175;DHT22;2101;48.290;14.382;2024-03-06T02:51:00;3.90;99.90
4175;DHT22;2101;48.290;14.382;2024-03-06T02:53:26;3.80;99.90
4175;DHT22;2101;48.290;14.382;2024-03-06T02:55:53;3.80;99.90
4175;DHT22;2101;48.290;14.382;2024-03-06T02:58:19;3.90;99.90
4175;DHT22;2101;48.290;14.382;2024-03-06T03:00:45;3.90;99.90
4175;DHT22;2101;48.290;14.382;2024-03-06T03:03:11;3.90;99.90
4175;DHT22;2101;48.290;14.382;2024-03-06T03:05:38;3.90;99.90
4175;DHT22;2101;48.290;14.382;2024-03-06T03:08:04;4.00;99.90
4175;DHT22;2101;48.290;14.382;2024-03-06T03:10:31;4.00;99.90
4175;DHT22;2101;48.290;14.382;2024-03-06T03:12:57;4.00;99.90
4175;DHT22;2101;48.290;14.382;2024-03-06T03:15:23;4.00;99.90
4175;DHT22;2101;48.290;14.382;2024-03-06T03:17:49;4.10;99.90
4175;DHT22;2101;48.290;14.382;2024-03-06T03:20:15;4.00;99.90
4175;DHT22;2101;48.290;14.382;2024-03-06T03:22:42;4.00;99.90
4175;DHT22;2101;48.290;14.382;2024-03-06T03:25:13;4.00;99.90
4175;DHT22;2101;48.290;14.382;2024-03-06T03:27:40;4.00;99.90
4175;DHT22;2101;48.290;14.382;2024-03-06T03:30:10;4.00;99.90
4175;DHT22;2101;48.290;14.382;2024-03-06T03:32:37;4.00;99.90
4175;DHT22;2101;48.290;14.382;2024-03-06T03:35:06;4.10;99.90
4175;DHT22;2101;48.290;14.382;2024-03-06T03:37:33;4.20;99.90
4175;DHT22;2101;48.290;14.382;2024-03-06T03:39:59;4.20;99.90
4175;DHT22;2101;48.290;14.382;2024-03-06T03:42:25;4.20;99.90
4175;DHT22;2101;48.290;14.382;2024-03-06T03:44:52;4.00;99.90
4175;DHT22;2101;48.290;14.382;2024-03-06T03:47:18;4.00;99.90
4175;DHT22;2101;48.290;14.382;2024-03-06T03:49:44;3.90;99.90
4175;DHT22;2101;48.290;14.382;2024-03-06T03:52:10;4.00;99.90
4175;DHT22;2101;48.290;14.382;2024-03-06T03:54:37;4.10;99.90
4175;DHT22;2101;48.290;14.382;2024-03-06T03:57:03;4.30;99.90
4175;DHT22;2101;48.290;14.382;2024-03-06T03:59:28;4.30;99.90
4175;DHT22;2101;48.290;14.382;2024-03-06T04:01:54;4.30;99.90
4175;DHT22;2101;48.290;14.382;2024-03-06T04:04:23;4.20;99.90
4175;DHT22;2101;48.290;14.382;2024-03-06T04:06:48;4.30;99.90
4175;DHT22;2101;48.290;14.382;2024-03-06T04:09:14;4.30;99.90
4175;DHT22;2101;48.290;14.382;2024-03-06T04:11:40;4.30;99.90
4175;DHT22;2101;48.290;14.382;2024-03-06T04:14:06;4.30;99.90
4175;DHT22;2101;48.290;14.382;2024-03-06T04:16:33;4.30;99.90
4175;DHT22;2101;48.290;14.382;2024-03-06T04:19:00;4.40;99.90
4175;DHT22;2101;48.290;14.382;2024-03-06T04:21:26;4.50;99.90
4175;DHT22;2101;48.290;14.382;2024-03-06T04:23:52;4.50;99.90
4175;DHT22;2101;48.290;14.382;2024-03-06T04:26:18;4.40;99.90
4175;DHT22;2101;48.290;14.382;2024-03-06T04:28:44;4.40;99.90
4175;DHT22;2101;48.290;14.382;2024-03-06T04:31:10;4.40;99.90
4175;DHT22;2101;48.290;14.382;2024-03-06T04:33:36;4.40;99.90
4175;DHT22;2101;48.290;14.382;2024-03-06T04:36:04;4.40;99.90
4175;DHT22;2101;48.290;14.382;2024-03-06T04:38:32;4.30;99.90
4175;DHT22;2101;48.290;14.382;2024-03-06T04:40:58;4.30;99.90
4175;DHT22;2101;48.290;14.382;2024-03-06T04:43:24;4.30;99.90
4175;DHT22;2101;48.290;14.382;2024-03-06T04:45:50;4.30;99.90
4175;DHT22;2101;48.290;14.382;2024-03-06T04:48:16;4.30;99.90
4175;DHT22;2101;48.290;14.382;2024-03-06T04:50:42;4.30;99.90
4175;DHT22;2101;48.290;14.382;2024-03-06T04:53:07;4.30;99.90
4175;DHT22;2101;48.290;14.382;2024-03-06T04:55:33;4.40;99.90
4175;DHT22;2101;48.290;14.382;2024-03-06T04:58:02;4.40;99.90
4175;DHT22;2101;48.290;14.382;2024-03-06T05:00:29;4.40;99.90
4175;DHT22;2101;48.290;14.382;2024-03-06T05:02:55;4.40;99.90
4175;DHT22;2101;48.290;14.382;2024-03-06T05:05:43;4.40;99.90
4175;DHT22;2101;48.290;14.382;2024-03-06T05:08:09;4.40;99.90
4175;DHT22;2101;48.290;14.382;2024-03-06T05:10:35;4.30;99.90
4175;DHT22;2101;48.290;14.382;2024-03-06T05:13:01;4.40;99.90
4175;DHT22;2101;48.290;14.382;2024-03-06T05:15:27;4.40;99.90
4175;DHT22;2101;48.290;14.382;2024-03-06T05:17:53;4.30;99.90
4175;DHT22;2101;48.290;14.382;2024-03-06T05:20:21;4.40;99.90
4175;DHT22;2101;48.290;14.382;2024-03-06T05:22:47;4.30;99.90
4175;DHT22;2101;48.290;14.382;2024-03-06T05:25:13;4.30;99.90
4175;DHT22;2101;48.290;14.382;2024-03-06T05:27:38;4.30;99.90
4175;DHT22;2101;48.290;14.382;2024-03-06T05:30:06;4.20;99.90
4175;DHT22;2101;48.290;14.382;2024-03-06T05:32:34;4.20;99.90
4175;DHT22;2101;48.290;14.382;2024-03-06T05:35:00;4.20;99.90
4175;DHT22;2101;48.290;14.382;2024-03-06T05:37:25;4.20;99.90
4175;DHT22;2101;48.290;14.382;2024-03-06T05:39:51;4.20;99.90
4175;DHT22;2101;48.290;14.382;2024-03-06T05:42:17;4.20;99.90
4175;DHT22;2101;48.290;14.382;2024-03-06T05:44:43;4.20;99.90
4175;DHT22;2101;48.290;14.382;2024-03-06T05:47:09;4.10;99.90
4175;DHT22;2101;48.290;14.382;2024-03-06T05:49:35;4.10;99.90
4175;DHT22;2101;48.290;14.382;2024-03-06T05:52:01;4.00;99.90
4175;DHT22;2101;48.290;14.382;2024-03-06T05:54:27;4.00;99.90
4175;DHT22;2101;48.290;14.382;2024-03-06T05:56:53;4.00;99.90
4175;DHT22;2101;48.290;14.382;2024-03-06T05:59:19;4.00;99.90
4175;DHT22;2101;48.290;14.382;2024-03-06T06:01:45;3.90;99.90
4175;DHT22;2101;48.290;14.382;2024-03-06T06:04:14;3.90;99.90
4175;DHT22;2101;48.290;14.382;2024-03-06T06:06:40;3.90;99.90
4175;DHT22;2101;48.290;14.382;2024-03-06T06:09:06;4.00;99.90
4175;DHT22;2101;48.290;14.382;2024-03-06T06:11:33;4.00;99.90
4175;DHT22;2101;48.290;14.382;2024-03-06T06:13:59;4.00;99.90
4175;DHT22;2101;48.290;14.382;2024-03-06T06:16:25;4.00;99.90
4175;DHT22;2101;48.290;14.382;2024-03-06T06:18:51;4.10;99.90
4175;DHT22;2101;48.290;14.382;2024-03-06T06:21:18;4.20;99.90
4175;DHT22;2101;48.290;14.382;2024-03-06T06:23:44;4.20;99.90
4175;DHT22;2101;48.290;14.382;2024-03-06T06:26:11;4.30;99.90
4175;DHT22;2101;48.290;14.382;2024-03-06T06:28:37;4.30;99.90
4175;DHT22;2101;48.290;14.382;2024-03-06T06:31:06;4.30;99.90
4175;DHT22;2101;48.290;14.382;2024-03-06T06:33:32;4.30;99.90
4175;DHT22;2101;48.290;14.382;2024-03-06T06:35:57;4.40;99.90
4175;DHT22;2101;48.290;14.382;2024-03-06T06:38:23;4.40;99.90
4175;DHT22;2101;48.290;14.382;2024-03-06T06:40:49;4.50;99.90
4175;DHT22;2101;48.290;14.382;2024-03-06T06:43:16;4.50;99.90
4175;DHT22;2101;48.290;14.382;2024-03-06T06:45:42;4.50;99.90
4175;DHT22;2101;48.290;14.382;2024-03-06T06:48:07;4.60;99.90
4175;DHT22;2101;48.290;14.382;2024-03-06T06:50:35;4.70;99.90
4175;DHT22;2101;48.290;14.382;2024-03-06T06:53:01;4.60;99.90
4175;DHT22;2101;48.290;14.382;2024-03-06T06:55:27;4.60;99.90
4175;DHT22;2101;48.290;14.382;2024-03-06T06:57:53;4.60;99.90
4175;DHT22;2101;48.290;14.382;2024-03-06T07:00:19;4.60;99.90
4175;DHT22;2101;48.290;14.382;2024-03-06T07:02:47;4.60;99.90
4175;DHT22;2101;48.290;14.382;2024-03-06T07:05:13;4.60;99.90
4175;DHT22;2101;48.290;14.382;2024-03-06T07:07:39;4.70;99.90
4175;DHT22;2101;48.290;14.382;2024-03-06T07:10:05;4.70;99.90
4175;DHT22;2101;48.290;14.382;2024-03-06T07:12:31;4.80;99.90
4175;DHT22;2101;48.290;14.382;2024-03-06T07:14:58;4.90;99.90
4175;DHT22;2101;48.290;14.382;2024-03-06T07:17:25;5.00;99.90
4175;DHT22;2101;48.290;14.382;2024-03-06T07:19:50;5.00;99.90
4175;DHT22;2101;48.290;14.382;2024-03-06T07:22:21;5.00;99.90
4175;DHT22;2101;48.290;14.382;2024-03-06T07:24:46;5.10;99.90
4175;DHT22;2101;48.290;14.382;2024-03-06T07:27:12;5.30;99.90
4175;DHT22;2101;48.290;14.382;2024-03-06T07:29:38;5.40;99.90
4175;DHT22;2101;48.290;14.382;2024-03-06T07:32:04;5.50;99.90
4175;DHT22;2101;48.290;14.382;2024-03-06T07:34:33;5.40;99.90
4175;DHT22;2101;48.290;14.382;2024-03-06T07:37:00;5.40;99.90
4175;DHT22;2101;48.290;14.382;2024-03-06T07:39:26;5.50;99.90
4175;DHT22;2101;48.290;14.382;2024-03-06T07:41:52;5.60;99.90
4175;DHT22;2101;48.290;14.382;2024-03-06T07:44:18;5.60;99.90
4175;DHT22;2101;48.290;14.382;2024-03-06T07:46:45;5.60;99.90
4175;DHT22;2101;48.290;14.382;2024-03-06T07:49:11;5.80;99.90
4175;DHT22;2101;48.290;14.382;2024-03-06T07:51:38;5.90;99.90
4175;DHT22;2101;48.290;14.382;2024-03-06T07:54:06;6.00;99.90
4175;DHT22;2101;48.290;14.382;2024-03-06T07:56:32;6.10;99.90
4175;DHT22;2101;48.290;14.382;2024-03-06T07:58:58;6.10;99.90
4175;DHT22;2101;48.290;14.382;2024-03-06T08:01:23;6.20;99.90
4175;DHT22;2101;48.290;14.382;2024-03-06T08:03:49;6.30;99.90
4175;DHT22;2101;48.290;14.382;2024-03-06T08:06:16;6.30;99.90
4175;DHT22;2101;48.290;14.382;2024-03-06T08:08:45;6.40;99.90
4175;DHT22;2101;48.290;14.382;2024-03-06T08:11:11;6.50;99.90
4175;DHT22;2101;48.290;14.382;2024-03-06T08:13:38;6.60;99.90
4175;DHT22;2101;48.290;14.382;2024-03-06T08:16:07;6.60;99.90
4175;DHT22;2101;48.290;14.382;2024-03-06T08:18:34;6.60;99.90
4175;DHT22;2101;48.290;14.382;2024-03-06T08:21:01;6.70;99.90
4175;DHT22;2101;48.290;14.382;2024-03-06T08:23:27;6.80;99.90
4175;DHT22;2101;48.290;14.382;2024-03-06T08:25:53;6.80;99.90
4175;DHT22;2101;48.290;14.382;2024-03-06T08:28:19;6.80;99.90
4175;DHT22;2101;48.290;14.382;2024-03-06T08:30:45;6.80;99.90
4175;DHT22;2101;48.290;14.382;2024-03-06T08:33:11;6.90;99.90
4175;DHT22;2101;48.290;14.382;2024-03-06T08:35:37;7.10;99.90
4175;DHT22;2101;48.290;14.382;2024-03-06T08:38:04;7.10;99.90
4175;DHT22;2101;48.290;14.382;2024-03-06T08:40:31;7.10;99.90
4175;DHT22;2101;48.290;14.382;2024-03-06T08:42:57;7.20;99.90
4175;DHT22;2101;48.290;14.382;2024-03-06T08:45:24;7.20;99.90
4175;DHT22;2101;48.290;14.382;2024-03-06T08:47:50;7.30;99.90
4175;DHT22;2101;48.290;14.382;2024-03-06T08:50:16;7.30;99.90
4175;DHT22;2101;48.290;14.382;2024-03-06T08:52:42;7.20;99.90
4175;DHT22;2101;48.290;14.382;2024-03-06T08:55:09;7.30;99.90
4175;DHT22;2101;48.290;14.382;2024-03-06T08:57:35;7.40;99.90
4175;DHT22;2101;48.290;14.382;2024-03-06T09:00:02;7.40;99.90
4175;DHT22;2101;48.290;14.382;2024-03-06T09:02:28;7.40;99.90
4175;DHT22;2101;48.290;14.382;2024-03-06T09:04:54;7.50;99.90
4175;DHT22;2101;48.290;14.382;2024-03-06T09:07:20;7.40;99.90
4175;DHT22;2101;48.290;14.382;2024-03-06T09:09:50;7.50;99.90
4175;DHT22;2101;48.290;14.382;2024-03-06T09:12:19;7.60;99.90
4175;DHT22;2101;48.290;14.382;2024-03-06T09:14:45;7.50;99.90
4175;DHT22;2101;48.290;14.382;2024-03-06T09:17:14;7.50;99.90
4175;DHT22;2101;48.290;14.382;2024-03-06T09:19:41;7.60;99.90
4175;DHT22;2101;48.290;14.382;2024-03-06T09:22:07;7.60;99.90
4175;DHT22;2101;48.290;14.382;2024-03-06T09:24:33;7.50;99.90
4175;DHT22;2101;48.290;14.382;2024-03-06T09:27:01;7.60;99.90
4175;DHT22;2101;48.290;14.382;2024-03-06T09:29:27;7.70;99.90
4175;DHT22;2101;48.290;14.382;2024-03-06T09:31:53;7.70;99.90
4175;DHT22;2101;48.290;14.382;2024-03-06T09:34:18;7.50;99.90
4175;DHT22;2101;48.290;14.382;2024-03-06T09:36:47;7.30;99.90
4175;DHT22;2101;48.290;14.382;2024-03-06T09:39:17;7.30;99.90
4175;DHT22;2101;48.290;14.382;2024-03-06T09:41:55;7.30;99.90
4175;DHT22;2101;48.290;14.382;2024-03-06T09:44:22;7.40;99.90
4175;DHT22;2101;48.290;14.382;2024-03-06T09:46:49;7.40;99.90
4175;DHT22;2101;48.290;14.382;2024-03-06T09:49:17;7.50;99.90
4175;DHT22;2101;48.290;14.382;2024-03-06T09:51:47;7.60;99.90
4175;DHT22;2101;48.290;14.382;2024-03-06T09:54:17;7.60;99.90
4175;DHT22;2101;48.290;14.382;2024-03-06T09:56:44;7.80;99.90
4175;DHT22;2101;48.290;14.382;2024-03-06T09:59:13;7.50;99.90
4175;DHT22;2101;48.290;14.382;2024-03-06T10:01:59;7.50;99.90
4175;DHT22;2101;48.290;14.382;2024-03-06T10:04:28;7.60;99.90
4175;DHT22;2101;48.290;14.382;2024-03-06T10:06:55;7.70;99.90
4175;DHT22;2101;48.290;14.382;2024-03-06T10:09:22;7.80;99.90
4175;DHT22;2101;48.290;14.382;2024-03-06T10:11:48;7.90;99.90
4175;DHT22;2101;48.290;14.382;2024-03-06T10:14:14;7.90;99.90
4175;DHT22;2101;48.290;14.382;2024-03-06T10:16:56;7.90;99.90
4175;DHT22;2101;48.290;14.382;2024-03-06T10:19:26;7.80;99.90
4175;DHT22;2101;48.290;14.382;2024-03-06T10:21:53;7.90;99.90
4175;DHT22;2101;48.290;14.382;2024-03-06T10:24:21;8.00;99.90
4175;DHT22;2101;48.290;14.382;2024-03-06T10:26:52;8.00;99.90
4175;DHT22;2101;48.290;14.382;2024-03-06T10:29:20;7.90;99.90
4175;DHT22;2101;48.290;14.382;2024-03-06T10:31:57;7.80;99.90
4175;DHT22;2101;48.290;14.382;2024-03-06T10:34:28;8.10;99.90
4175;DHT22;2101;48.290;14.382;2024-03-06T10:37:02;8.00;99.90
4175;DHT22;2101;48.290;14.382;2024-03-06T10:39:34;8.10;99.90
4175;DHT22;2101;48.290;14.382;2024-03-06T10:42:02;8.40;99.90
4175;DHT22;2101;48.290;14.382;2024-03-06T10:44:32;8.40;99.90
4175;DHT22;2101;48.290;14.382;2024-03-06T10:47:01;8.40;99.90
4175;DHT22;2101;48.290;14.382;2024-03-06T10:49:28;8.50;99.90
4175;DHT22;2101;48.290;14.382;2024-03-06T10:52:02;8.60;99.90
4175;DHT22;2101;48.290;14.382;2024-03-06T10:54:33;8.60;99.90
4175;DHT22;2101;48.290;14.382;2024-03-06T10:57:04;8.60;99.90
4175;DHT22;2101;48.290;14.382;2024-03-06T10:59:31;8.60;99.90
4175;DHT22;2101;48.290;14.382;2024-03-06T11:02:00;8.90;99.90
4175;DHT22;2101;48.290;14.382;2024-03-06T11:04:28;9.00;99.90
4175;DHT22;2101;48.290;14.382;2024-03-06T11:06:58;9.10;99.90
4175;DHT22;2101;48.290;14.382;2024-03-06T11:09:28;9.40;99.90
4175;DHT22;2101;48.290;14.382;2024-03-06T11:11:54;9.30;99.90
4175;DHT22;2101;48.290;14.382;2024-03-06T11:14:24;9.50;99.90
4175;DHT22;2101;48.290;14.382;2024-03-06T11:17:06;9.60;99.90
4175;DHT22;2101;48.290;14.382;2024-03-06T11:28:19;9.70;99.90
4175;DHT22;2101;48.290;14.382;2024-03-06T11:31:01;9.80;99.90
4175;DHT22;2101;48.290;14.382;2024-03-06T11:33:42;9.80;99.90
4175;DHT22;2101;48.290;14.382;2024-03-06T11:36:22;9.70;99.90
4175;DHT22;2101;48.290;14.382;2024-03-06T11:41:31;10.00;99.90
4175;DHT22;2101;48.290;14.382;2024-03-06T11:44:00;10.00;99.90
4175;DHT22;2101;48.290;14.382;2024-03-06T11:46:48;9.80;99.90
4175;DHT22;2101;48.290;14.382;2024-03-06T11:49:24;9.80;99.90
4175;DHT22;2101;48.290;14.382;2024-03-06T11:51:51;9.80;99.90
4175;DHT22;2101;48.290;14.382;2024-03-06T11:54:17;10.00;99.90
4175;DHT22;2101;48.290;14.382;2024-03-06T11:56:49;10.10;99.90
4175;DHT22;2101;48.290;14.382;2024-03-06T11:59:29;10.20;99.90
4175;DHT22;2101;48.290;14.382;2024-03-06T12:01:56;10.30;99.90
4175;DHT22;2101;48.290;14.382;2024-03-06T12:04:22;10.60;99.90
4175;DHT22;2101;48.290;14.382;2024-03-06T12:06:50;10.70;99.90
4175;DHT22;2101;48.290;14.382;2024-03-06T12:09:16;11.00;99.90
4175;DHT22;2101;48.290;14.382;2024-03-06T12:11:42;11.20;99.90
4175;DHT22;2101;48.290;14.382;2024-03-06T12:14:17;10.80;99.90
4175;DHT22;2101;48.290;14.382;2024-03-06T12:16:56;11.30;99.90
4175;DHT22;2101;48.290;14.382;2024-03-06T12:19:22;11.70;99.90
4175;DHT22;2101;48.290;14.382;2024-03-06T12:21:48;11.50;99.90
4175;DHT22;2101;48.290;14.382;2024-03-06T12:24:16;11.90;99.90
4175;DHT22;2101;48.290;14.382;2024-03-06T12:26:46;11.90;99.90
4175;DHT22;2101;48.290;14.382;2024-03-06T12:29:17;11.90;99.90
4175;DHT22;2101;48.290;14.382;2024-03-06T12:31:46;12.10;99.90
4175;DHT22;2101;48.290;14.382;2024-03-06T12:34:15;12.00;99.90
4175;DHT22;2101;48.290;14.382;2024-03-06T12:36:48;12.00;99.90
4175;DHT22;2101;48.290;14.382;2024-03-06T12:39:15;11.70;99.90
4175;DHT22;2101;48.290;14.382;2024-03-06T12:41:43;11.70;99.90
4175;DHT22;2101;48.290;14.382;2024-03-06T12:44:10;11.90;99.90
4175;DHT22;2101;48.290;14.382;2024-03-06T12:46:36;12.00;99.90
4175;DHT22;2101;48.290;14.382;2024-03-06T12:49:02;11.40;99.90
4175;DHT22;2101;48.290;14.382;2024-03-06T12:51:28;11.00;99.90
4175;DHT22;2101;48.290;14.382;2024-03-06T12:53:54;11.50;99.90
4175;DHT22;2101;48.290;14.382;2024-03-06T12:56:20;11.60;99.90
4175;DHT22;2101;48.290;14.382;2024-03-06T12:58:45;12.00;99.90
4175;DHT22;2101;48.290;14.382;2024-03-06T13:01:11;12.10;99.90
4175;DHT22;2101;48.290;14.382;2024-03-06T13:03:37;12.00;99.90
4175;DHT22;2101;48.290;14.382;2024-03-06T13:06:04;12.20;99.90
4175;DHT22;2101;48.290;14.382;2024-03-06T13:08:31;11.40;99.90
4175;DHT22;2101;48.290;14.382;2024-03-06T13:10:57;11.60;99.90
4175;DHT22;2101;48.290;14.382;2024-03-06T13:13:25;11.60;99.90
4175;DHT22;2101;48.290;14.382;2024-03-06T13:15:52;11.50;99.90
4175;DHT22;2101;48.290;14.382;2024-03-06T13:18:18;11.70;99.90
4175;DHT22;2101;48.290;14.382;2024-03-06T13:20:44;11.50;99.90
4175;DHT22;2101;48.290;14.382;2024-03-06T13:23:10;11.80;99.90
4175;DHT22;2101;48.290;14.382;2024-03-06T13:25:36;11.90;99.90
4175;DHT22;2101;48.290;14.382;2024-03-06T13:28:03;11.70;99.90
4175;DHT22;2101;48.290;14.382;2024-03-06T13:30:29;11.40;99.90
4175;DHT22;2101;48.290;14.382;2024-03-06T13:32:55;11.30;99.90
4175;DHT22;2101;48.290;14.382;2024-03-06T13:35:21;10.90;99.90
4175;DHT22;2101;48.290;14.382;2024-03-06T13:37:47;11.00;99.90
4175;DHT22;2101;48.290;14.382;2024-03-06T13:40:14;11.10;99.90
4175;DHT22;2101;48.290;14.382;2024-03-06T13:42:41;10.60;99.90
4175;DHT22;2101;48.290;14.382;2024-03-06T13:45:08;10.40;99.90
4175;DHT22;2101;48.290;14.382;2024-03-06T13:47:41;10.30;99.90
4175;DHT22;2101;48.290;14.382;2024-03-06T13:50:11;10.20;99.90
4175;DHT22;2101;48.290;14.382;2024-03-06T13:52:38;10.10;99.90
4175;DHT22;2101;48.290;14.382;2024-03-06T13:55:04;10.10;99.90
4175;DHT22;2101;48.290;14.382;2024-03-06T13:57:33;10.00;99.90
4175;DHT22;2101;48.290;14.382;2024-03-06T14:00:11;10.00;99.90
4175;DHT22;2101;48.290;14.382;2024-03-06T14:02:44;9.90;99.90
4175;DHT22;2101;48.290;14.382;2024-03-06T14:05:13;9.90;99.90
4175;DHT22;2101;48.290;14.382;2024-03-06T14:07:40;10.00;99.90
4175;DHT22;2101;48.290;14.382;2024-03-06T14:10:07;10.10;99.90
4175;DHT22;2101;48.290;14.382;2024-03-06T14:12:37;10.10;99.90
4175;DHT22;2101;48.290;14.382;2024-03-06T14:15:05;10.10;99.90
4175;DHT22;2101;48.290;14.382;2024-03-06T14:17:30;10.00;99.90
4175;DHT22;2101;48.290;14.382;2024-03-06T14:19:56;9.90;99.90
4175;DHT22;2101;48.290;14.382;2024-03-06T14:22:22;9.90;99.90
4175;DHT22;2101;48.290;14.382;2024-03-06T14:24:48;9.70;99.90
4175;DHT22;2101;48.290;14.382;2024-03-06T14:27:14;9.70;99.90
4175;DHT22;2101;48.290;14.382;2024-03-06T14:29:40;9.70;99.90
4175;DHT22;2101;48.290;14.382;2024-03-06T14:32:06;9.80;99.90
4175;DHT22;2101;48.290;14.382;2024-03-06T14:34:32;9.80;99.90
4175;DHT22;2101;48.290;14.382;2024-03-06T14:36:58;9.70;99.90
4175;DHT22;2101;48.290;14.382;2024-03-06T14:39:24;9.80;99.90
4175;DHT22;2101;48.290;14.382;2024-03-06T14:41:51;9.70;99.90
4175;DHT22;2101;48.290;14.382;2024-03-06T14:44:17;9.50;99.90
4175;DHT22;2101;48.290;14.382;2024-03-06T14:46:43;9.50;99.90
4175;DHT22;2101;48.290;14.382;2024-03-06T14:49:09;9.50;99.90
4175;DHT22;2101;48.290;14.382;2024-03-06T14:51:36;9.50;99.90
4175;DHT22;2101;48.290;14.382;2024-03-06T14:54:02;9.50;99.90
4175;DHT22;2101;48.290;14.382;2024-03-06T14:56:29;9.50;99.90
4175;DHT22;2101;48.290;14.382;2024-03-06T14:58:57;9.40;99.90
4175;DHT22;2101;48.290;14.382;2024-03-06T15:01:23;9.40;99.90
4175;DHT22;2101;48.290;14.382;2024-03-06T15:03:51;9.50;99.90
4175;DHT22;2101;48.290;14.382;2024-03-06T15:06:17;9.50;99.90
4175;DHT22;2101;48.290;14.382;2024-03-06T15:08:43;9.40;99.90
4175;DHT22;2101;48.290;14.382;2024-03-06T15:11:10;9.30;99.90
4175;DHT22;2101;48.290;14.382;2024-03-06T15:13:36;9.20;99.90
4175;DHT22;2101;48.290;14.382;2024-03-06T15:16:02;9.20;99.90
4175;DHT22;2101;48.290;14.382;2024-03-06T15:18:31;9.20;99.90
4175;DHT22;2101;48.290;14.382;2024-03-06T15:20:58;9.10;99.90
4175;DHT22;2101;48.290;14.382;2024-03-06T15:23:24;9.10;99.90
4175;DHT22;2101;48.290;14.382;2024-03-06T15:25:50;9.10;99.90
4175;DHT22;2101;48.290;14.382;2024-03-06T15:28:16;9.00;99.90
4175;DHT22;2101;48.290;14.382;2024-03-06T15:30:42;9.00;99.90
4175;DHT22;2101;48.290;14.382;2024-03-06T15:33:08;9.00;99.90
4175;DHT22;2101;48.290;14.382;2024-03-06T15:35:34;9.00;99.90
4175;DHT22;2101;48.290;14.382;2024-03-06T15:37:59;9.00;99.90
4175;DHT22;2101;48.290;14.382;2024-03-06T15:40:25;8.90;99.90
4175;DHT22;2101;48.290;14.382;2024-03-06T15:42:52;8.90;99.90
4175;DHT22;2101;48.290;14.382;2024-03-06T15:45:18;8.90;99.90
4175;DHT22;2101;48.290;14.382;2024-03-06T15:47:45;8.90;99.90
4175;DHT22;2101;48.290;14.382;2024-03-06T15:50:11;8.90;99.90
4175;DHT22;2101;48.290;14.382;2024-03-06T15:52:38;8.80;99.90
4175;DHT22;2101;48.290;14.382;2024-03-06T15:55:07;8.90;99.90
4175;DHT22;2101;48.290;14.382;2024-03-06T15:57:35;8.90;99.90
4175;DHT22;2101;48.290;14.382;2024-03-06T16:00:02;8.90;99.90
4175;DHT22;2101;48.290;14.382;2024-03-06T16:02:28;8.90;99.90
4175;DHT22;2101;48.290;14.382;2024-03-06T16:04:53;8.90;99.90
4175;DHT22;2101;48.290;14.382;2024-03-06T16:07:19;8.90;99.90
4175;DHT22;2101;48.290;14.382;2024-03-06T16:09:45;8.90;99.90